Elmsdale, Canada
Current Conditions -  °F | °C
As of 10:00 AM on Sunday 23 Nov 2014 (Local Time) from CYHZ Reporting Station
Overcast Overcast  
Wind Chill: 35°   Ceiling: 2200
Heat Index: 41°   Visibility: 15mi
Dew Point: 36°   Wind: 10mph
Humidity: 81%   Direction: 270°W
Pressure: 29.98"   Gusts: NA
Location:  44.97°N, 63.52°W
Report Text: CYHZ 231400Z 27009KT 15SM OVC022 05/02 A2998 RMK SC8 SLP156
Loading
Personal Weather Stations






























Interactive Weather Map New forecast layout! Learn more

10-Day Weather Forecast

Advertisements
Track Severe Weather on mobile